Time;durP1;ratioP1;P1;durP2;ratioP2;P2;SDS_P1;SDS_P2;PMS_P1;PMS_P2;Temp;Humidity;BMP_temperature;BMP_pressure;BME280_temperature;BME280_humidity;BME280_pressure;Samples;Min_cycle;Max_cycle;Signal;HPM_P1;HPM_P2
2021/07/10 00:01:36;;;;;;;5.10;4.70;;;17.30;78.80;;;;;;5083908;28;20036;-64
2021/07/10 00:04:05;;;;;;;4.43;4.13;;;17.30;78.90;;;;;;5086027;28;20036;-64
2021/07/10 00:06:31;;;;;;;4.43;4.07;;;17.30;79.00;;;;;;5084192;27;20055;-64
2021/07/10 00:08:57;;;;;;;5.45;4.47;;;17.30;79.20;;;;;;5081125;27;20788;-64
2021/07/10 00:11:22;;;;;;;6.70;4.80;;;17.30;79.40;;;;;;5081367;28;20044;-63
2021/07/10 00:13:48;;;;;;;5.28;4.78;;;17.30;79.60;;;;;;5085441;27;20056;-64
2021/07/10 00:16:14;;;;;;;5.32;4.90;;;17.30;79.60;;;;;;5084593;28;20071;-64
2021/07/10 00:18:39;;;;;;;5.35;4.85;;;17.30;79.80;;;;;;5081976;28;20063;-63
2021/07/10 00:21:05;;;;;;;5.93;4.72;;;17.30;79.80;;;;;;5084281;27;20024;-63
2021/07/10 00:23:31;;;;;;;5.70;5.13;;;17.40;79.80;;;;;;5085706;28;20024;-64
2021/07/10 00:25:57;;;;;;;5.82;4.85;;;17.40;79.70;;;;;;5083589;27;20471;-64
2021/07/10 00:28:22;;;;;;;5.85;4.93;;;17.40;79.50;;;;;;5080417;27;20047;-64
2021/07/10 00:30:48;;;;;;;5.55;5.03;;;17.40;79.40;;;;;;5079373;28;20036;-63
2021/07/10 00:33:13;;;;;;;6.38;5.80;;;17.40;79.60;;;;;;5082693;27;20514;-64
2021/07/10 00:35:39;;;;;;;6.93;5.47;;;17.30;79.40;;;;;;5084016;27;20038;-64
2021/07/10 00:38:05;;;;;;;5.93;5.30;;;17.30;79.40;;;;;;5081813;27;20032;-64
2021/07/10 00:40:31;;;;;;;6.15;5.55;;;17.30;79.40;;;;;;5081601;27;20032;-64
2021/07/10 00:42:57;;;;;;;6.68;5.32;;;17.30;79.50;;;;;;5094105;27;20402;-64
2021/07/10 00:45:23;;;;;;;6.82;5.78;;;17.20;79.30;;;;;;5083787;27;20043;-64
2021/07/10 00:47:48;;;;;;;7.22;5.28;;;17.20;79.50;;;;;;5085058;28;20433;-64
2021/07/10 00:50:19;;;;;;;5.60;5.03;;;17.20;79.30;;;;;;5076617;28;20028;-65
2021/07/10 00:52:45;;;;;;;5.88;5.30;;;17.30;79.10;;;;;;5082329;27;20051;-64
2021/07/10 00:55:12;;;;;;;5.90;5.03;;;17.30;78.80;;;;;;5084736;28;20028;-64
2021/07/10 00:57:39;;;;;;;5.43;4.93;;;17.20;78.70;;;;;;5094938;27;20043;-63
2021/07/10 01:00:09;;;;;;;6.00;5.38;;;17.20;78.50;;;;;;5084239;28;20028;-64
2021/07/10 01:02:35;;;;;;;6.70;5.28;;;17.20;78.50;;;;;;5083964;28;20040;-64
2021/07/10 01:05:05;;;;;;;6.68;5.78;;;17.10;78.60;;;;;;5081231;27;20021;-64
2021/07/10 01:07:31;;;;;;;6.30;5.20;;;17.10;78.60;;;;;;5079955;28;20915;-64
2021/07/10 01:09:56;;;;;;;6.22;5.00;;;17.10;78.60;;;;;;5083276;27;20089;-64
2021/07/10 01:12:22;;;;;;;5.72;4.93;;;17.10;78.50;;;;;;5079441;27;20115;-64
2021/07/10 01:14:48;;;;;;;5.22;4.78;;;17.00;78.30;;;;;;5083673;28;20036;-64
2021/07/10 01:17:14;;;;;;;4.75;4.25;;;17.00;78.40;;;;;;5081557;27;20036;-64
2021/07/10 01:19:39;;;;;;;4.15;3.88;;;17.00;78.20;;;;;;5079154;28;20032;-64
2021/07/10 01:22:08;;;;;;;6.32;4.07;;;16.90;78.10;;;;;;5082716;28;20036;-63
2021/07/10 01:24:34;;;;;;;4.18;3.88;;;16.90;78.20;;;;;;5080124;27;20032;-64
2021/07/10 01:26:59;;;;;;;7.13;4.30;;;16.80;78.10;;;;;;5081450;28;20043;-64
2021/07/10 01:29:26;;;;;;;6.25;4.25;;;16.80;78.10;;;;;;5081690;27;20036;-64
2021/07/10 01:31:53;;;;;;;9.38;4.70;;;16.80;78.20;;;;;;5098174;27;20507;-64
2021/07/10 01:34:19;;;;;;;4.80;4.22;;;16.70;78.00;;;;;;5079072;27;20040;-64
2021/07/10 01:36:46;;;;;;;5.25;4.28;;;16.70;78.10;;;;;;5083470;27;20040;-64
2021/07/10 01:39:12;;;;;;;4.13;3.83;;;16.60;78.20;;;;;;5081819;28;20551;-64
2021/07/10 01:41:45;;;;;;;5.15;4.70;;;16.60;78.40;;;;;;5083734;27;20129;-64
2021/07/10 01:44:11;;;;;;;6.80;4.43;;;16.60;78.80;;;;;;5078426;28;20032;-64
2021/07/10 01:46:37;;;;;;;6.38;5.78;;;16.60;78.80;;;;;;5079890;27;20782;-64
2021/07/10 01:49:03;;;;;;;6.50;5.70;;;16.50;79.10;;;;;;5082865;27;20029;-64
2021/07/10 01:51:29;;;;;;;49.60;6.97;;;16.40;79.40;;;;;;5081548;28;20036;-64
2021/07/10 01:53:55;;;;;;;47.88;7.18;;;16.40;80.00;;;;;;5087022;27;20035;-64
2021/07/10 01:56:20;;;;;;;46.30;6.10;;;16.40;80.30;;;;;;5085372;28;20028;-64
2021/07/10 01:58:46;;;;;;;88.60;7.00;;;16.30;80.60;;;;;;5078481;27;20162;-64
2021/07/10 02:01:11;;;;;;;99.90;6.20;;;16.30;80.90;;;;;;5084184;27;20028;-64
2021/07/10 02:03:37;;;;;;;94.30;6.65;;;16.30;81.10;;;;;;5085167;28;20032;-64
2021/07/10 02:06:03;;;;;;;108.55;7.28;;;16.30;82.00;;;;;;5085778;28;20064;-64
2021/07/10 02:08:29;;;;;;;79.60;4.93;;;16.30;81.30;;;;;;5080396;27;20111;-64
2021/07/10 02:10:55;;;;;;;14.27;4.75;;;16.30;81.30;;;;;;5081520;28;20518;-64
2021/07/10 02:13:20;;;;;;;59.13;4.47;;;16.20;81.30;;;;;;5077879;27;20044;-64
2021/07/10 02:15:46;;;;;;;69.10;4.18;;;16.20;81.40;;;;;;5082164;28;20049;-63
2021/07/10 02:18:12;;;;;;;45.45;4.72;;;16.20;81.20;;;;;;5079658;27;20028;-64
2021/07/10 02:20:38;;;;;;;36.45;3.50;;;16.10;81.00;;;;;;5078160;27;20032;-64
2021/07/10 02:23:04;;;;;;;46.47;3.88;;;16.10;81.10;;;;;;5083011;28;20051;-62
2021/07/10 02:25:31;;;;;;;35.10;4.07;;;16.10;81.30;;;;;;5074490;28;20127;-63
2021/07/10 02:27:57;;;;;;;29.58;4.80;;;16.00;81.50;;;;;;5075878;27;20044;-64
2021/07/10 02:30:29;;;;;;;16.42;4.50;;;15.90;81.70;;;;;;5086081;27;20450;-64
2021/07/10 02:32:57;;;;;;;41.22;5.30;;;15.90;82.00;;;;;;5083738;27;20108;-64
2021/07/10 02:35:23;;;;;;;15.65;4.57;;;15.90;82.00;;;;;;5082263;28;20137;-64
2021/07/10 02:37:50;;;;;;;25.20;4.80;;;15.90;82.00;;;;;;5083761;27;20707;-64
2021/07/10 02:40:18;;;;;;;32.58;5.50;;;15.80;82.00;;;;;;5080286;28;20035;-64
2021/07/10 02:42:44;;;;;;;14.63;4.50;;;15.80;82.00;;;;;;5082432;27;20067;-64
2021/07/10 02:45:11;;;;;;;51.97;6.05;;;15.80;82.20;;;;;;5078855;27;20036;-64
2021/07/10 02:47:37;;;;;;;74.38;6.38;;;15.80;82.50;;;;;;5082888;28;20562;-63
2021/07/10 02:50:06;;;;;;;41.80;5.97;;;15.70;82.70;;;;;;5080732;27;20124;-64
2021/07/10 02:52:33;;;;;;;74.18;6.80;;;15.70;83.10;;;;;;5076029;27;20407;-64
2021/07/10 02:54:59;;;;;;;85.10;6.50;;;15.70;83.10;;;;;;5082870;28;20044;-64
2021/07/10 02:57:25;;;;;;;107.80;6.63;;;15.70;83.20;;;;;;5082230;27;20581;-64
2021/07/10 02:59:51;;;;;;;72.93;7.28;;;15.70;83.20;;;;;;5078742;28;20032;-64
2021/07/10 03:02:17;;;;;;;77.45;6.68;;;15.70;83.10;;;;;;5083243;27;20089;-64
2021/07/10 03:04:43;;;;;;;44.80;5.55;;;15.60;83.20;;;;;;5083643;27;20066;-64
2021/07/10 03:07:09;;;;;;;92.07;7.60;;;15.60;83.30;;;;;;5086406;28;20032;-64
2021/07/10 03:09:35;;;;;;;42.05;5.70;;;15.60;83.60;;;;;;5082696;27;20066;-64
2021/07/10 03:12:00;;;;;;;92.32;6.38;;;15.60;83.60;;;;;;5076394;28;20036;-64
2021/07/10 03:14:26;;;;;;;18.15;5.53;;;15.60;83.40;;;;;;5084389;27;20032;-64
2021/07/10 03:16:52;;;;;;;89.97;7.05;;;15.60;83.50;;;;;;5085449;27;20104;-64
2021/07/10 03:19:17;;;;;;;47.05;5.95;;;15.60;83.70;;;;;;5088130;28;20056;-63
2021/07/10 03:21:43;;;;;;;87.53;6.43;;;15.60;83.60;;;;;;5083708;27;20486;-64
2021/07/10 03:24:09;;;;;;;66.28;6.15;;;15.60;83.50;;;;;;5087110;28;20036;-64
2021/07/10 03:26:35;;;;;;;23.05;5.30;;;15.60;84.30;;;;;;5085326;27;20028;-64
2021/07/10 03:29:00;;;;;;;60.13;5.70;;;15.60;83.40;;;;;;5087693;27;20666;-64
2021/07/10 03:31:26;;;;;;;35.38;5.20;;;15.60;83.60;;;;;;5081468;28;20032;-64
2021/07/10 03:33:52;;;;;;;33.83;5.10;;;15.60;83.30;;;;;;5085085;27;20054;-64
2021/07/10 03:36:17;;;;;;;40.15;5.85;;;15.60;83.30;;;;;;5094816;27;20122;-64
2021/07/10 03:38:44;;;;;;;5.38;4.97;;;15.60;83.30;;;;;;5081354;27;20028;-63
2021/07/10 03:41:11;;;;;;;8.82;4.85;;;15.60;83.40;;;;;;5084953;27;20035;-64
2021/07/10 03:43:37;;;;;;;11.55;5.07;;;15.60;83.70;;;;;;5078574;27;20044;-64
2021/07/10 03:46:03;;;;;;;29.50;5.85;;;15.60;83.80;;;;;;5085949;27;20098;-64
2021/07/10 03:48:31;;;;;;;36.95;5.82;;;15.60;83.90;;;;;;5083984;27;20040;-63
2021/07/10 03:51:00;;;;;;;17.20;5.47;;;15.70;84.00;;;;;;5081812;28;20032;-63
2021/07/10 03:53:26;;;;;;;72.57;5.75;;;15.70;83.90;;;;;;5083849;27;20061;-64
2021/07/10 03:55:52;;;;;;;65.63;6.78;;;15.80;83.50;;;;;;5084000;28;20116;-63
2021/07/10 03:58:17;;;;;;;119.03;7.25;;;15.70;83.30;;;;;;5085808;27;20532;-64
2021/07/10 04:00:43;;;;;;;100.85;6.53;;;15.80;82.90;;;;;;5084857;27;20039;-64
2021/07/10 04:03:09;;;;;;;124.80;7.72;;;15.70;82.60;;;;;;5082449;28;20044;-64
2021/07/10 04:05:36;;;;;;;61.53;6.13;;;15.70;82.60;;;;;;5083310;28;20463;-64
2021/07/10 04:08:02;;;;;;;47.47;6.07;;;15.70;82.70;;;;;;5085579;28;20113;-63
2021/07/10 04:10:28;;;;;;;13.07;4.82;;;15.70;82.90;;;;;;5083946;27;20047;-64
2021/07/10 04:12:54;;;;;;;45.55;5.88;;;15.60;83.20;;;;;;5082820;27;20401;-63
2021/07/10 04:15:20;;;;;;;47.17;6.35;;;15.60;83.40;;;;;;5082258;28;20032;-63
2021/07/10 04:17:47;;;;;;;12.45;5.97;;;15.60;83.60;;;;;;5082319;27;20620;-64
2021/07/10 04:20:14;;;;;;;22.52;5.85;;;15.60;83.70;;;;;;5082847;28;20046;-64
2021/07/10 04:22:41;;;;;;;75.22;6.15;;;15.70;83.90;;;;;;5081390;27;20032;-63
2021/07/10 04:25:09;;;;;;;67.00;6.03;;;15.70;83.60;;;;;;5084907;27;20028;-63
2021/07/10 04:27:38;;;;;;;86.90;5.70;;;15.70;84.30;;;;;;5084950;28;20029;-64
2021/07/10 04:30:05;;;;;;;143.30;7.05;;;15.70;83.40;;;;;;5083435;27;20048;-64
2021/07/10 04:32:31;;;;;;;91.65;5.05;;;15.70;83.10;;;;;;5084009;27;20032;-64
2021/07/10 04:34:57;;;;;;;4.78;4.38;;;15.70;82.90;;;;;;5087334;28;20173;-64
2021/07/10 04:37:23;;;;;;;28.17;4.20;;;15.70;82.90;;;;;;5080162;27;20113;-64
2021/07/10 04:39:49;;;;;;;4.82;4.35;;;15.60;83.00;;;;;;5084003;28;20067;-64
2021/07/10 04:42:15;;;;;;;78.85;4.53;;;15.60;83.10;;;;;;5080781;27;20767;-66
2021/07/10 04:44:40;;;;;;;46.08;4.82;;;15.60;83.10;;;;;;5084916;27;20506;-66
2021/07/10 04:47:06;;;;;;;94.63;5.50;;;15.60;82.80;;;;;;5081737;27;20111;-66
2021/07/10 04:49:32;;;;;;;11.10;4.00;;;15.60;83.60;;;;;;5079534;27;20032;-66
2021/07/10 04:51:57;;;;;;;22.35;4.40;;;15.60;82.90;;;;;;5084902;28;20052;-66
2021/07/10 04:54:23;;;;;;;5.32;4.25;;;15.60;83.60;;;;;;5085453;27;20598;-64
2021/07/10 04:56:49;;;;;;;7.85;4.85;;;15.60;83.80;;;;;;5081910;27;22280;-64
2021/07/10 04:59:14;;;;;;;16.98;4.93;;;15.60;84.10;;;;;;5082929;28;20491;-64
2021/07/10 05:01:40;;;;;;;11.25;5.07;;;15.70;84.20;;;;;;5083708;27;20036;-64
2021/07/10 05:04:06;;;;;;;60.47;6.18;;;15.70;84.00;;;;;;5082183;28;20035;-64
2021/07/10 05:06:31;;;;;;;15.23;4.88;;;15.80;83.90;;;;;;5082604;27;20032;-64
2021/07/10 05:08:57;;;;;;;22.35;4.85;;;15.80;83.70;;;;;;5085805;27;20402;-64
2021/07/10 05:11:23;;;;;;;22.65;5.10;;;15.80;83.80;;;;;;5083084;28;20032;-63
2021/07/10 05:13:48;;;;;;;104.05;7.40;;;15.90;84.00;;;;;;5080980;27;20506;-64
2021/07/10 05:16:14;;;;;;;106.15;7.28;;;15.80;83.70;;;;;;5077835;28;20032;-64
2021/07/10 05:18:40;;;;;;;98.57;7.53;;;15.90;83.30;;;;;;5081549;27;20039;-64
2021/07/10 05:21:05;;;;;;;16.10;5.03;;;15.90;83.10;;;;;;5081673;27;20028;-63
2021/07/10 05:23:31;;;;;;;8.25;5.28;;;15.80;83.10;;;;;;5078907;28;20510;-63
2021/07/10 05:25:57;;;;;;;43.50;6.35;;;15.80;83.50;;;;;;5078977;27;20050;-63
2021/07/10 05:28:23;;;;;;;115.93;8.63;;;15.80;83.90;;;;;;5081909;28;20040;-63
2021/07/10 05:30:50;;;;;;;100.38;9.05;;;15.80;84.00;;;;;;5078748;28;20046;-63
2021/07/10 05:33:16;;;;;;;156.30;10.18;;;15.80;83.90;;;;;;5078540;28;20043;-64
2021/07/10 05:35:46;;;;;;;66.82;9.98;;;15.80;84.20;;;;;;5092540;27;20039;-64
2021/07/10 05:38:17;;;;;;;162.48;11.15;;;15.80;84.20;;;;;;5077992;27;20032;-64
2021/07/10 05:40:42;;;;;;;135.63;10.02;;;15.80;84.40;;;;;;5076257;27;20047;-64
2021/07/10 05:43:09;;;;;;;71.50;9.43;;;15.80;84.30;;;;;;5077385;27;20028;-64
2021/07/10 05:45:34;;;;;;;22.75;8.15;;;15.80;84.50;;;;;;5080422;27;20063;-63
2021/07/10 05:48:00;;;;;;;23.35;8.20;;;15.80;84.70;;;;;;5081962;28;20105;-64
2021/07/10 05:50:26;;;;;;;13.82;8.00;;;15.80;85.00;;;;;;5079778;27;20036;-64
2021/07/10 05:52:52;;;;;;;12.15;7.82;;;15.80;85.20;;;;;;5083033;27;20444;-65
2021/07/10 05:55:17;;;;;;;9.40;7.70;;;15.90;85.50;;;;;;5083097;28;20027;-64
2021/07/10 05:57:43;;;;;;;8.00;7.30;;;16.00;85.60;;;;;;5082411;27;20040;-64
2021/07/10 06:00:11;;;;;;;8.90;8.00;;;16.00;85.50;;;;;;5078263;28;20035;-64
2021/07/10 06:02:37;;;;;;;9.27;8.32;;;16.10;85.50;;;;;;5072420;27;20028;-63
2021/07/10 06:05:05;;;;;;;9.48;7.97;;;16.20;85.50;;;;;;5077981;27;20725;-64
2021/07/10 06:07:30;;;;;;;9.07;8.15;;;16.30;85.60;;;;;;5095359;27;20028;-64
2021/07/10 06:09:56;;;;;;;8.30;7.50;;;16.30;85.50;;;;;;5078080;27;20550;-64
2021/07/10 06:12:22;;;;;;;9.60;8.50;;;16.40;85.20;;;;;;5076853;27;20115;-64
2021/07/10 06:14:47;;;;;;;11.05;9.95;;;16.50;85.00;;;;;;5075617;28;20040;-64
2021/07/10 06:17:13;;;;;;;11.20;8.85;;;16.50;84.90;;;;;;5076892;27;20070;-64
2021/07/10 06:19:38;;;;;;;11.00;9.60;;;16.60;84.80;;;;;;5080104;28;20419;-64
2021/07/10 06:22:04;;;;;;;11.35;10.13;;;16.70;84.80;;;;;;5078020;27;20040;-64
2021/07/10 06:24:31;;;;;;;10.93;9.80;;;16.70;84.60;;;;;;5077454;27;20368;-64
2021/07/10 06:26:56;;;;;;;10.95;9.85;;;16.80;84.60;;;;;;5078586;28;20036;-64
2021/07/10 06:29:22;;;;;;;11.70;10.15;;;16.80;84.50;;;;;;5085076;27;20032;-64
2021/07/10 06:31:48;;;;;;;11.82;10.70;;;16.90;84.60;;;;;;5062904;27;20056;-64
2021/07/10 06:34:13;;;;;;;10.75;9.70;;;17.00;84.50;;;;;;5063253;27;20047;-65
2021/07/10 06:36:40;;;;;;;11.93;10.80;;;17.00;84.40;;;;;;5067877;27;20036;-65
2021/07/10 06:39:06;;;;;;;12.40;11.15;;;17.10;84.20;;;;;;5064006;28;20105;-65
2021/07/10 06:41:32;;;;;;;13.10;11.82;;;17.20;83.80;;;;;;5065825;27;20028;-65
2021/07/10 06:43:58;;;;;;;14.35;12.85;;;17.20;83.30;;;;;;5061613;28;20691;-65
2021/07/10 06:46:24;;;;;;;13.57;12.18;;;17.30;83.20;;;;;;5063493;28;20063;-65
2021/07/10 06:48:50;;;;;;;13.30;12.00;;;17.30;83.20;;;;;;5068515;27;20164;-65
2021/07/10 06:51:16;;;;;;;14.00;12.60;;;17.40;83.10;;;;;;5074914;28;20463;-65
2021/07/10 06:53:43;;;;;;;14.80;13.25;;;17.40;82.90;;;;;;5069237;27;20131;-65
2021/07/10 06:56:09;;;;;;;17.52;13.77;;;17.40;82.40;;;;;;5070061;28;20036;-65
2021/07/10 06:58:35;;;;;;;14.93;13.40;;;17.40;82.00;;;;;;5068655;27;20257;-65
2021/07/10 07:01:01;;;;;;;14.00;12.55;;;17.40;82.60;;;;;;5066243;27;20491;-65
2021/07/10 07:03:27;;;;;;;15.30;13.43;;;17.30;83.00;;;;;;5067098;28;20574;-65
2021/07/10 07:05:52;;;;;;;14.23;12.82;;;17.30;83.50;;;;;;5070598;27;20024;-66
2021/07/10 07:08:18;;;;;;;15.10;13.63;;;17.30;83.80;;;;;;5072884;28;20170;-65
2021/07/10 07:10:44;;;;;;;14.25;12.85;;;17.40;84.00;;;;;;5070504;27;20059;-65
2021/07/10 07:13:09;;;;;;;14.65;13.18;;;17.40;84.00;;;;;;5079570;28;20056;-65
2021/07/10 07:15:35;;;;;;;12.82;11.55;;;17.50;84.00;;;;;;5075606;28;20032;-65
2021/07/10 07:18:01;;;;;;;13.75;12.45;;;17.60;83.80;;;;;;5066907;27;20028;-65
2021/07/10 07:20:26;;;;;;;13.85;12.55;;;17.60;83.40;;;;;;5075121;27;20032;-64
2021/07/10 07:22:52;;;;;;;11.93;10.82;;;17.70;83.40;;;;;;5073749;28;20157;-65
2021/07/10 07:25:20;;;;;;;10.75;9.75;;;17.80;83.90;;;;;;5071627;28;20085;-65
2021/07/10 07:27:47;;;;;;;10.98;9.93;;;17.90;83.70;;;;;;5071066;27;20098;-64
2021/07/10 07:30:13;;;;;;;12.38;11.07;;;18.00;83.30;;;;;;5075443;27;20039;-66
2021/07/10 07:32:39;;;;;;;12.93;11.63;;;18.10;83.10;;;;;;5084928;27;20998;-65
2021/07/10 07:35:08;;;;;;;12.40;11.20;;;18.10;83.40;;;;;;5086794;28;20046;-65
2021/07/10 07:37:34;;;;;;;10.75;9.75;;;18.20;82.20;;;;;;5083353;27;20032;-65
2021/07/10 07:39:59;;;;;;;11.73;10.20;;;18.20;83.00;;;;;;5071072;28;20054;-66
2021/07/10 07:42:25;;;;;;;10.90;9.80;;;18.30;82.00;;;;;;5078293;27;20032;-66
2021/07/10 07:44:51;;;;;;;11.30;10.20;;;18.30;81.70;;;;;;5069400;28;20042;-65
2021/07/10 07:47:18;;;;;;;10.48;9.48;;;18.40;81.60;;;;;;5068544;28;20035;-66
2021/07/10 07:49:45;;;;;;;10.45;9.48;;;18.40;81.70;;;;;;5073120;27;20511;-65
2021/07/10 07:52:11;;;;;;;11.77;9.95;;;18.40;81.70;;;;;;5068315;28;20043;-65
2021/07/10 07:54:37;;;;;;;10.73;9.73;;;18.50;81.80;;;;;;5067674;27;20036;-65
2021/07/10 07:57:04;;;;;;;11.90;10.70;;;18.60;81.70;;;;;;5068994;28;20408;-66
2021/07/10 07:59:30;;;;;;;11.10;9.95;;;18.70;81.30;;;;;;5068535;28;20037;-65
2021/07/10 08:01:55;;;;;;;10.32;9.32;;;18.80;81.00;;;;;;5070008;27;20662;-66
2021/07/10 08:04:21;;;;;;;10.90;9.80;;;18.80;81.30;;;;;;5069234;28;20541;-66
2021/07/10 08:06:47;;;;;;;10.70;9.60;;;18.90;81.30;;;;;;5073817;27;20045;-65
2021/07/10 08:09:13;;;;;;;10.00;7.97;;;18.90;81.50;;;;;;5067992;27;20032;-64
2021/07/10 08:11:38;;;;;;;7.28;6.65;;;19.00;81.30;;;;;;5064659;27;20042;-66
2021/07/10 08:14:04;;;;;;;7.40;6.70;;;19.00;81.10;;;;;;5067577;28;20045;-66
2021/07/10 08:16:30;;;;;;;8.15;6.90;;;19.10;81.30;;;;;;5080456;27;20024;-66
2021/07/10 08:18:56;;;;;;;8.23;7.32;;;19.20;81.30;;;;;;5086707;28;20911;-65
2021/07/10 08:21:23;;;;;;;8.38;7.53;;;19.30;81.10;;;;;;5086889;27;20025;-65
2021/07/10 08:23:49;;;;;;;8.50;7.60;;;19.50;80.80;;;;;;5084192;28;20039;-65
2021/07/10 08:26:15;;;;;;;7.18;6.57;;;19.60;80.80;;;;;;5086193;27;20032;-65
2021/07/10 08:28:41;;;;;;;7.75;7.05;;;19.70;80.50;;;;;;5087522;27;20518;-65
2021/07/10 08:31:06;;;;;;;7.22;6.60;;;19.80;80.30;;;;;;5088867;28;20119;-65
2021/07/10 08:33:32;;;;;;;8.70;6.65;;;19.90;80.00;;;;;;5087059;28;20115;-65
2021/07/10 08:35:58;;;;;;;6.10;5.57;;;20.00;79.80;;;;;;5087453;28;20059;-66
2021/07/10 08:38:24;;;;;;;5.38;4.90;;;20.10;79.80;;;;;;5087310;27;20040;-66
2021/07/10 08:40:51;;;;;;;4.53;4.22;;;20.30;79.80;;;;;;5081176;28;20080;-65
2021/07/10 08:43:17;;;;;;;4.60;4.28;;;20.40;79.50;;;;;;5087361;27;20036;-65
2021/07/10 08:45:46;;;;;;;4.15;3.85;;;20.50;78.70;;;;;;5087254;27;20040;-66
2021/07/10 08:48:12;;;;;;;3.67;3.38;;;20.70;78.10;;;;;;5087026;28;20039;-66
2021/07/10 08:50:38;;;;;;;3.60;3.30;;;20.80;77.80;;;;;;5087018;27;20024;-65
2021/07/10 08:53:05;;;;;;;3.60;3.40;;;21.00;77.10;;;;;;5086449;27;20036;-63
2021/07/10 08:55:31;;;;;;;3.35;3.08;;;21.20;76.50;;;;;;5087535;28;20032;-66
2021/07/10 08:57:58;;;;;;;3.05;2.83;;;21.30;76.10;;;;;;5086831;27;20029;-65
2021/07/10 09:00:27;;;;;;;3.88;2.78;;;21.40;76.10;;;;;;5087326;27;20050;-66
2021/07/10 09:02:55;;;;;;;3.22;3.03;;;21.50;75.10;;;;;;5087809;28;20453;-66
2021/07/10 09:05:21;;;;;;;4.97;2.70;;;21.70;74.90;;;;;;5085373;27;20028;-66
2021/07/10 09:08:08;;;;;;;4.28;2.97;;;21.80;74.60;;;;;;5087347;27;20035;-66
2021/07/10 09:10:36;;;;;;;3.50;3.30;;;22.00;73.00;;;;;;5084275;27;20036;-65
2021/07/10 09:13:02;;;;;;;3.60;3.30;;;22.10;73.20;;;;;;5082389;27;20435;-65
2021/07/10 09:15:28;;;;;;;4.85;3.78;;;22.20;73.00;;;;;;5074442;27;20064;-64
2021/07/10 09:17:53;;;;;;;3.13;2.92;;;22.30;72.60;;;;;;5071809;27;20028;-65
2021/07/10 09:20:25;;;;;;;2.97;2.78;;;22.40;71.90;;;;;;5065834;28;20234;-64
2021/07/10 09:22:51;;;;;;;3.80;2.95;;;22.40;71.20;;;;;;5077765;28;20486;-65
2021/07/10 09:25:32;;;;;;;3.17;2.88;;;22.50;71.70;;;;;;5076243;27;20028;-65
2021/07/10 09:28:00;;;;;;;2.80;2.60;;;22.60;71.50;;;;;;5080418;28;20034;-65
2021/07/10 09:30:33;;;;;;;3.33;3.08;;;22.70;71.20;;;;;;5076663;27;20040;-65
2021/07/10 09:33:16;;;;;;;4.88;3.38;;;22.80;69.90;;;;;;5081173;27;20025;-64
2021/07/10 09:36:00;;;;;;;3.30;3.10;;;22.90;69.00;;;;;;5078331;28;20044;-64
2021/07/10 09:38:33;;;;;;;3.92;3.00;;;23.00;70.00;;;;;;5082464;27;20499;-65
2021/07/10 09:41:06;;;;;;;2.55;2.35;;;23.00;70.50;;;;;;5074364;28;20024;-64
2021/07/10 09:43:34;;;;;;;3.13;2.30;;;23.20;69.50;;;;;;5073012;28;20036;-65
2021/07/10 09:46:03;;;;;;;2.22;2.13;;;23.20;69.60;;;;;;5072911;28;20032;-64
2021/07/10 09:48:30;;;;;;;2.72;2.53;;;23.30;68.70;;;;;;5074446;27;20028;-65
2021/07/10 09:51:28;;;;;;;2.75;2.60;;;23.40;68.60;;;;;;5080530;28;20111;-65
2021/07/10 09:54:06;;;;;;;2.25;2.15;;;23.50;66.90;;;;;;5057426;28;20406;-65
2021/07/10 09:56:34;;;;;;;2.30;2.05;;;23.60;67.80;;;;;;5074017;28;20028;-65
2021/07/10 09:59:19;;;;;;;2.67;2.47;;;23.70;67.80;;;;;;5080383;28;20024;-65
2021/07/10 10:01:46;;;;;;;2.58;2.38;;;23.80;65.70;;;;;;5081855;27;20056;-65
2021/07/10 10:04:26;;;;;;;2.35;2.15;;;23.90;66.70;;;;;;5085045;28;20036;-65
2021/07/10 10:06:54;;;;;;;2.70;2.22;;;23.90;64.10;;;;;;5085286;28;20032;-65
2021/07/10 10:09:23;;;;;;;2.03;1.73;;;24.00;66.60;;;;;;5086177;27;20835;-65
2021/07/10 10:11:50;;;;;;;2.30;2.10;;;24.10;64.80;;;;;;5079629;28;20332;-65
2021/07/10 10:14:17;;;;;;;2.20;2.00;;;24.10;64.80;;;;;;5080446;27;20029;-65
2021/07/10 10:16:46;;;;;;;2.33;2.10;;;24.20;64.40;;;;;;5092793;27;20165;-65
2021/07/10 10:19:21;;;;;;;3.38;2.47;;;24.30;64.90;;;;;;5083464;28;20055;-65
2021/07/10 10:21:47;;;;;;;;;;;24.40;62.70;;;;;;5087159;27;20515;-65
2021/07/10 10:24:14;;;;;;;2.10;2.00;;;24.40;64.60;;;;;;5090418;28;20003;-65
2021/07/10 10:26:42;;;;;;;2.00;1.90;;;24.40;64.20;;;;;;5091376;27;20043;-66
2021/07/10 10:29:09;;;;;;;2.00;1.90;;;24.50;63.40;;;;;;5089114;27;20059;-65
2021/07/10 10:31:37;;;;;;;2.10;1.98;;;24.50;62.20;;;;;;5081452;28;20064;-65
2021/07/10 10:34:05;;;;;;;1.83;1.70;;;24.60;62.00;;;;;;5081941;27;20036;-66
2021/07/10 10:36:34;;;;;;;2.42;2.00;;;24.60;62.00;;;;;;5080528;27;20071;-65
2021/07/10 10:39:00;;;;;;;2.33;2.17;;;24.70;62.20;;;;;;5079383;28;20114;-65
2021/07/10 10:41:26;;;;;;;2.20;1.98;;;24.70;62.00;;;;;;5077986;27;20044;-65
2021/07/10 10:43:55;;;;;;;2.25;1.90;;;24.80;62.00;;;;;;5081923;28;20036;-67
2021/07/10 10:46:25;;;;;;;1.88;1.77;;;24.80;60.80;;;;;;5076408;28;20048;-65
2021/07/10 10:48:52;;;;;;;2.25;1.38;;;24.90;60.30;;;;;;5077114;28;20039;-65
2021/07/10 10:51:33;;;;;;;1.80;1.70;;;24.90;60.00;;;;;;5086024;27;20667;-65
2021/07/10 10:54:24;;;;;;;1.80;1.70;;;25.00;59.30;;;;;;5084385;27;20081;-65
2021/07/10 10:56:50;;;;;;;2.00;1.80;;;25.00;58.70;;;;;;5076446;27;20048;-64
2021/07/10 10:59:28;;;;;;;1.85;1.75;;;25.10;60.50;;;;;;5078580;27;20740;-65
2021/07/10 11:01:54;;;;;;;1.77;1.67;;;25.10;59.40;;;;;;5076012;27;20033;-65
2021/07/10 11:04:44;;;;;;;1.90;1.55;;;25.20;59.80;;;;;;5077589;28;20081;-65
2021/07/10 11:07:28;;;;;;;2.35;1.50;;;25.30;58.70;;;;;;5096962;27;20104;-65
2021/07/10 11:10:03;;;;;;;3.45;1.60;;;25.30;57.50;;;;;;5077466;28;20410;-65
2021/07/10 11:12:53;;;;;;;2.03;1.80;;;25.30;57.70;;;;;;5078077;27;20036;-66
2021/07/10 11:15:24;;;;;;;1.92;1.80;;;25.40;57.70;;;;;;5082261;28;20067;-65
2021/07/10 11:17:51;;;;;;;1.92;1.83;;;25.40;58.20;;;;;;5086353;27;20543;-65
2021/07/10 11:20:45;;;;;;;1.70;1.60;;;25.40;57.90;;;;;;5088912;28;20399;-65
2021/07/10 11:23:33;;;;;;;1.83;1.73;;;25.40;58.00;;;;;;5087217;27;20031;-65
2021/07/10 11:26:15;;;;;;;2.03;1.92;;;25.40;56.50;;;;;;5088304;27;20084;-66
2021/07/10 11:28:48;;;;;;;1.48;1.40;;;25.40;57.10;;;;;;5085552;28;20032;-65
2021/07/10 11:31:17;;;;;;;2.50;1.52;;;25.40;57.00;;;;;;5080220;28;20389;-65
2021/07/10 11:34:03;;;;;;;3.25;1.67;;;25.40;58.00;;;;;;5083819;27;20037;-65
2021/07/10 11:36:35;;;;;;;1.80;1.70;;;25.50;57.30;;;;;;5082671;27;20019;-65
2021/07/10 11:39:32;;;;;;;2.00;1.80;;;25.50;57.50;;;;;;5084062;28;20111;-66
2021/07/10 11:42:00;;;;;;;2.25;1.67;;;25.50;57.50;;;;;;5079817;28;20040;-65
2021/07/10 11:44:27;;;;;;;1.98;1.77;;;25.60;56.80;;;;;;5083117;27;20032;-66
2021/07/10 11:46:56;;;;;;;1.70;1.60;;;25.60;57.40;;;;;;5083459;28;20036;-66
2021/07/10 11:49:36;;;;;;;2.40;1.60;;;25.60;57.30;;;;;;5079552;27;20411;-65
2021/07/10 11:52:04;;;;;;;1.55;1.45;;;25.60;57.00;;;;;;5080931;28;20081;-66
2021/07/10 11:54:30;;;;;;;2.30;1.40;;;25.70;57.40;;;;;;5084892;27;20036;-66
2021/07/10 11:56:56;;;;;;;1.52;1.42;;;25.70;57.20;;;;;;5082554;27;20102;-65
2021/07/10 11:59:23;;;;;;;1.35;1.30;;;25.70;57.10;;;;;;5086416;28;20028;-66
2021/07/10 12:01:49;;;;;;;1.50;1.40;;;25.70;56.50;;;;;;5083836;27;20456;-65
2021/07/10 12:04:14;;;;;;;1.63;1.52;;;25.70;56.50;;;;;;5081683;28;20123;-66
2021/07/10 12:06:40;;;;;;;1.70;1.60;;;25.70;56.60;;;;;;5080585;28;20042;-65
2021/07/10 12:09:06;;;;;;;1.52;1.42;;;25.70;56.50;;;;;;5081597;27;20071;-65
2021/07/10 12:11:33;;;;;;;1.65;1.48;;;25.80;56.40;;;;;;5078601;27;20040;-66
2021/07/10 12:14:09;;;;;;;1.52;1.42;;;25.80;55.80;;;;;;5073968;28;20113;-66
2021/07/10 12:16:37;;;;;;;2.65;1.50;;;25.70;55.10;;;;;;5082339;27;20032;-65
2021/07/10 12:19:03;;;;;;;1.67;1.42;;;25.80;55.40;;;;;;5086541;28;20406;-65
2021/07/10 12:21:29;;;;;;;1.52;1.42;;;25.80;55.80;;;;;;5088886;27;20495;-65
2021/07/10 12:23:56;;;;;;;1.83;1.73;;;25.80;56.50;;;;;;5083852;28;20522;-65
2021/07/10 12:26:26;;;;;;;3.65;1.48;;;25.80;56.30;;;;;;5087103;27;20117;-66
2021/07/10 12:28:57;;;;;;;1.70;1.60;;;25.90;55.50;;;;;;5088195;27;20028;-65
2021/07/10 12:31:34;;;;;;;1.75;1.60;;;25.90;55.30;;;;;;5085634;28;20619;-65
2021/07/10 12:34:05;;;;;;;1.50;1.40;;;25.90;54.70;;;;;;5091508;27;20040;-65
2021/07/10 12:36:41;;;;;;;3.08;1.45;;;25.90;55.50;;;;;;5087652;27;20521;-66
2021/07/10 12:39:13;;;;;;;1.20;1.20;;;25.90;55.50;;;;;;5078612;27;20032;-65
2021/07/10 12:41:56;;;;;;;1.90;1.30;;;26.00;55.50;;;;;;5096058;28;20032;-66
2021/07/10 12:44:24;;;;;;;1.92;1.33;;;26.00;54.90;;;;;;5075894;27;20076;-67